sensor_id;sensor_type;location;lat;lon;timestamp;P1;durP1;ratioP1;P2;durP2;ratioP2
11078;SDS011;5592;49.234;7.268;2023-05-21T00:01:01;13.63;;;11.30;;
11078;SDS011;5592;49.234;7.268;2023-05-21T00:03:29;13.80;;;12.03;;
11078;SDS011;5592;49.234;7.268;2023-05-21T00:05:55;15.10;;;12.27;;
11078;SDS011;5592;49.234;7.268;2023-05-21T00:08:21;14.47;;;12.13;;
11078;SDS011;5592;49.234;7.268;2023-05-21T00:10:47;15.87;;;12.20;;
11078;SDS011;5592;49.234;7.268;2023-05-21T00:13:13;17.03;;;12.40;;
11078;SDS011;5592;49.234;7.268;2023-05-21T00:15:38;15.47;;;13.50;;
11078;SDS011;5592;49.234;7.268;2023-05-21T00:18:04;19.30;;;12.00;;
11078;SDS011;5592;49.234;7.268;2023-05-21T00:20:30;16.60;;;12.93;;
11078;SDS011;5592;49.234;7.268;2023-05-21T00:22:59;16.67;;;12.87;;
11078;SDS011;5592;49.234;7.268;2023-05-21T00:25:29;16.63;;;13.80;;
11078;SDS011;5592;49.234;7.268;2023-05-21T00:27:55;18.50;;;13.53;;
11078;SDS011;5592;49.234;7.268;2023-05-21T00:30:21;15.23;;;12.83;;
11078;SDS011;5592;49.234;7.268;2023-05-21T00:32:47;19.83;;;14.00;;
11078;SDS011;5592;49.234;7.268;2023-05-21T00:35:12;17.83;;;15.07;;
11078;SDS011;5592;49.234;7.268;2023-05-21T00:37:38;17.67;;;12.60;;
11078;SDS011;5592;49.234;7.268;2023-05-21T00:40:05;16.60;;;12.77;;
11078;SDS011;5592;49.234;7.268;2023-05-21T00:42:35;20.70;;;13.43;;
11078;SDS011;5592;49.234;7.268;2023-05-21T00:45:05;16.13;;;13.40;;
11078;SDS011;5592;49.234;7.268;2023-05-21T00:47:31;17.53;;;13.13;;
11078;SDS011;5592;49.234;7.268;2023-05-21T00:49:58;17.80;;;12.90;;
11078;SDS011;5592;49.234;7.268;2023-05-21T00:52:24;17.27;;;14.00;;
11078;SDS011;5592;49.234;7.268;2023-05-21T00:54:51;22.50;;;13.43;;
11078;SDS011;5592;49.234;7.268;2023-05-21T00:57:19;18.30;;;13.90;;
11078;SDS011;5592;49.234;7.268;2023-05-21T00:59:47;18.53;;;14.30;;
11078;SDS011;5592;49.234;7.268;2023-05-21T01:02:15;19.97;;;13.80;;
11078;SDS011;5592;49.234;7.268;2023-05-21T01:04:44;18.40;;;15.57;;
11078;SDS011;5592;49.234;7.268;2023-05-21T01:07:10;17.70;;;14.07;;
11078;SDS011;5592;49.234;7.268;2023-05-21T01:09:36;17.23;;;12.87;;
11078;SDS011;5592;49.234;7.268;2023-05-21T01:12:03;19.20;;;14.43;;
11078;SDS011;5592;49.234;7.268;2023-05-21T01:14:29;19.23;;;14.83;;
11078;SDS011;5592;49.234;7.268;2023-05-21T01:16:56;23.67;;;14.07;;
11078;SDS011;5592;49.234;7.268;2023-05-21T01:19:26;18.10;;;14.60;;
11078;SDS011;5592;49.234;7.268;2023-05-21T01:21:54;19.57;;;14.33;;
11078;SDS011;5592;49.234;7.268;2023-05-21T01:24:21;19.20;;;14.30;;
11078;SDS011;5592;49.234;7.268;2023-05-21T01:26:47;20.97;;;14.47;;
11078;SDS011;5592;49.234;7.268;2023-05-21T01:29:13;20.27;;;16.20;;
11078;SDS011;5592;49.234;7.268;2023-05-21T01:34:07;19.20;;;15.33;;
11078;SDS011;5592;49.234;7.268;2023-05-21T01:36:37;20.83;;;16.50;;
11078;SDS011;5592;49.234;7.268;2023-05-21T01:39:13;21.33;;;14.90;;
11078;SDS011;5592;49.234;7.268;2023-05-21T01:41:44;20.27;;;15.40;;
11078;SDS011;5592;49.234;7.268;2023-05-21T01:44:10;20.13;;;15.57;;
11078;SDS011;5592;49.234;7.268;2023-05-21T01:46:38;20.80;;;15.90;;
11078;SDS011;5592;49.234;7.268;2023-05-21T01:49:04;18.97;;;15.03;;
11078;SDS011;5592;49.234;7.268;2023-05-21T01:51:32;20.80;;;16.63;;
11078;SDS011;5592;49.234;7.268;2023-05-21T01:53:59;21.30;;;15.87;;
11078;SDS011;5592;49.234;7.268;2023-05-21T01:56:26;21.53;;;16.63;;
11078;SDS011;5592;49.234;7.268;2023-05-21T01:58:52;23.23;;;16.23;;
11078;SDS011;5592;49.234;7.268;2023-05-21T02:01:20;24.80;;;17.20;;
11078;SDS011;5592;49.234;7.268;2023-05-21T02:03:46;20.07;;;16.93;;
11078;SDS011;5592;49.234;7.268;2023-05-21T02:06:12;20.30;;;14.80;;
11078;SDS011;5592;49.234;7.268;2023-05-21T02:08:37;20.97;;;16.17;;
11078;SDS011;5592;49.234;7.268;2023-05-21T02:11:03;20.20;;;16.03;;
11078;SDS011;5592;49.234;7.268;2023-05-21T02:13:29;25.37;;;16.43;;
11078;SDS011;5592;49.234;7.268;2023-05-21T02:15:54;21.60;;;16.77;;
11078;SDS011;5592;49.234;7.268;2023-05-21T02:18:20;23.30;;;16.57;;
11078;SDS011;5592;49.234;7.268;2023-05-21T02:20:46;19.43;;;15.20;;
11078;SDS011;5592;49.234;7.268;2023-05-21T02:23:11;24.90;;;17.20;;
11078;SDS011;5592;49.234;7.268;2023-05-21T02:25:37;20.10;;;16.00;;
11078;SDS011;5592;49.234;7.268;2023-05-21T02:28:03;21.97;;;16.07;;
11078;SDS011;5592;49.234;7.268;2023-05-21T02:30:28;22.80;;;16.57;;
11078;SDS011;5592;49.234;7.268;2023-05-21T02:32:54;20.20;;;15.53;;
11078;SDS011;5592;49.234;7.268;2023-05-21T02:35:25;19.10;;;14.97;;
11078;SDS011;5592;49.234;7.268;2023-05-21T02:37:53;22.30;;;16.20;;
11078;SDS011;5592;49.234;7.268;2023-05-21T02:40:23;23.93;;;16.53;;
11078;SDS011;5592;49.234;7.268;2023-05-21T02:42:49;19.03;;;15.53;;
11078;SDS011;5592;49.234;7.268;2023-05-21T02:45:14;21.40;;;16.47;;
11078;SDS011;5592;49.234;7.268;2023-05-21T02:47:40;17.80;;;14.43;;
11078;SDS011;5592;49.234;7.268;2023-05-21T02:50:06;20.93;;;17.23;;
11078;SDS011;5592;49.234;7.268;2023-05-21T02:52:32;27.83;;;16.40;;
11078;SDS011;5592;49.234;7.268;2023-05-21T02:54:58;20.50;;;17.57;;
11078;SDS011;5592;49.234;7.268;2023-05-21T02:57:24;22.90;;;16.80;;
11078;SDS011;5592;49.234;7.268;2023-05-21T02:59:49;23.37;;;17.70;;
11078;SDS011;5592;49.234;7.268;2023-05-21T03:02:15;23.30;;;16.90;;
11078;SDS011;5592;49.234;7.268;2023-05-21T03:04:41;23.17;;;17.57;;
11078;SDS011;5592;49.234;7.268;2023-05-21T03:07:10;22.43;;;16.37;;
11078;SDS011;5592;49.234;7.268;2023-05-21T03:09:40;21.63;;;16.27;;
11078;SDS011;5592;49.234;7.268;2023-05-21T03:12:06;23.47;;;17.57;;
11078;SDS011;5592;49.234;7.268;2023-05-21T03:14:33;24.73;;;17.60;;
11078;SDS011;5592;49.234;7.268;2023-05-21T03:16:59;23.57;;;17.87;;
11078;SDS011;5592;49.234;7.268;2023-05-21T03:19:27;24.10;;;17.60;;
11078;SDS011;5592;49.234;7.268;2023-05-21T03:21:54;22.30;;;16.27;;
11078;SDS011;5592;49.234;7.268;2023-05-21T03:24:20;23.17;;;16.73;;
11078;SDS011;5592;49.234;7.268;2023-05-21T03:26:46;21.57;;;17.60;;
11078;SDS011;5592;49.234;7.268;2023-05-21T03:29:13;23.80;;;16.20;;
11078;SDS011;5592;49.234;7.268;2023-05-21T03:31:38;26.57;;;18.67;;
11078;SDS011;5592;49.234;7.268;2023-05-21T03:34:04;23.17;;;16.33;;
11078;SDS011;5592;49.234;7.268;2023-05-21T03:36:29;20.97;;;15.77;;
11078;SDS011;5592;49.234;7.268;2023-05-21T03:38:55;26.40;;;18.10;;
11078;SDS011;5592;49.234;7.268;2023-05-21T03:41:21;24.87;;;17.87;;
11078;SDS011;5592;49.234;7.268;2023-05-21T03:43:47;30.23;;;20.27;;
11078;SDS011;5592;49.234;7.268;2023-05-21T03:46:12;25.33;;;19.17;;
11078;SDS011;5592;49.234;7.268;2023-05-21T03:48:38;32.77;;;19.03;;
11078;SDS011;5592;49.234;7.268;2023-05-21T03:51:03;24.30;;;18.80;;
11078;SDS011;5592;49.234;7.268;2023-05-21T03:53:29;22.03;;;16.67;;
11078;SDS011;5592;49.234;7.268;2023-05-21T03:55:57;26.77;;;18.23;;
11078;SDS011;5592;49.234;7.268;2023-05-21T03:58:23;29.00;;;19.00;;
11078;SDS011;5592;49.234;7.268;2023-05-21T04:00:48;29.90;;;18.30;;
11078;SDS011;5592;49.234;7.268;2023-05-21T04:03:14;29.20;;;17.20;;
11078;SDS011;5592;49.234;7.268;2023-05-21T04:05:40;25.60;;;18.03;;
11078;SDS011;5592;49.234;7.268;2023-05-21T04:08:06;25.10;;;19.63;;
11078;SDS011;5592;49.234;7.268;2023-05-21T04:10:32;23.93;;;17.80;;
11078;SDS011;5592;49.234;7.268;2023-05-21T04:12:58;24.83;;;18.60;;
11078;SDS011;5592;49.234;7.268;2023-05-21T04:15:24;27.13;;;18.97;;
11078;SDS011;5592;49.234;7.268;2023-05-21T04:17:51;27.53;;;18.90;;
11078;SDS011;5592;49.234;7.268;2023-05-21T04:20:18;24.50;;;19.30;;
11078;SDS011;5592;49.234;7.268;2023-05-21T04:22:44;27.47;;;17.77;;
11078;SDS011;5592;49.234;7.268;2023-05-21T04:25:10;24.20;;;17.97;;
11078;SDS011;5592;49.234;7.268;2023-05-21T04:27:35;23.93;;;17.87;;
11078;SDS011;5592;49.234;7.268;2023-05-21T04:30:01;20.97;;;15.87;;
11078;SDS011;5592;49.234;7.268;2023-05-21T04:32:28;24.93;;;17.47;;
11078;SDS011;5592;49.234;7.268;2023-05-21T04:34:58;24.97;;;17.33;;
11078;SDS011;5592;49.234;7.268;2023-05-21T04:37:25;25.60;;;19.37;;
11078;SDS011;5592;49.234;7.268;2023-05-21T04:39:56;21.40;;;16.87;;
11078;SDS011;5592;49.234;7.268;2023-05-21T04:42:21;24.23;;;15.90;;
11078;SDS011;5592;49.234;7.268;2023-05-21T04:44:48;23.57;;;16.23;;
11078;SDS011;5592;49.234;7.268;2023-05-21T04:47:14;29.10;;;16.37;;
11078;SDS011;5592;49.234;7.268;2023-05-21T04:49:43;20.57;;;16.67;;
11078;SDS011;5592;49.234;7.268;2023-05-21T04:52:10;22.03;;;15.40;;
11078;SDS011;5592;49.234;7.268;2023-05-21T04:54:36;20.20;;;15.00;;
11078;SDS011;5592;49.234;7.268;2023-05-21T04:57:03;18.90;;;14.00;;
11078;SDS011;5592;49.234;7.268;2023-05-21T04:59:30;16.70;;;14.13;;
11078;SDS011;5592;49.234;7.268;2023-05-21T05:01:59;17.47;;;13.80;;
11078;SDS011;5592;49.234;7.268;2023-05-21T05:04:24;15.80;;;12.60;;
11078;SDS011;5592;49.234;7.268;2023-05-21T05:06:50;18.23;;;12.87;;
11078;SDS011;5592;49.234;7.268;2023-05-21T05:09:16;15.70;;;11.70;;
11078;SDS011;5592;49.234;7.268;2023-05-21T05:11:42;16.13;;;12.87;;
11078;SDS011;5592;49.234;7.268;2023-05-21T05:14:08;17.03;;;12.83;;
11078;SDS011;5592;49.234;7.268;2023-05-21T05:16:33;15.23;;;12.67;;
11078;SDS011;5592;49.234;7.268;2023-05-21T05:18:59;16.00;;;12.37;;
11078;SDS011;5592;49.234;7.268;2023-05-21T05:21:25;16.43;;;11.87;;
11078;SDS011;5592;49.234;7.268;2023-05-21T05:23:51;14.90;;;11.27;;
11078;SDS011;5592;49.234;7.268;2023-05-21T05:26:16;15.30;;;11.97;;
11078;SDS011;5592;49.234;7.268;2023-05-21T05:28:42;16.43;;;13.20;;
11078;SDS011;5592;49.234;7.268;2023-05-21T05:31:09;14.63;;;11.53;;
11078;SDS011;5592;49.234;7.268;2023-05-21T05:33:35;15.80;;;12.60;;
11078;SDS011;5592;49.234;7.268;2023-05-21T05:36:01;19.23;;;12.60;;
11078;SDS011;5592;49.234;7.268;2023-05-21T05:38:26;13.40;;;11.90;;
11078;SDS011;5592;49.234;7.268;2023-05-21T05:40:52;13.97;;;11.87;;
11078;SDS011;5592;49.234;7.268;2023-05-21T05:43:17;15.57;;;11.60;;
11078;SDS011;5592;49.234;7.268;2023-05-21T05:45:43;15.30;;;11.30;;
11078;SDS011;5592;49.234;7.268;2023-05-21T05:48:08;15.30;;;12.20;;
11078;SDS011;5592;49.234;7.268;2023-05-21T05:50:34;15.80;;;12.70;;
11078;SDS011;5592;49.234;7.268;2023-05-21T05:53:00;13.93;;;12.30;;
11078;SDS011;5592;49.234;7.268;2023-05-21T05:55:25;14.00;;;11.67;;
11078;SDS011;5592;49.234;7.268;2023-05-21T05:57:51;16.47;;;11.83;;
11078;SDS011;5592;49.234;7.268;2023-05-21T06:00:17;14.87;;;11.30;;
11078;SDS011;5592;49.234;7.268;2023-05-21T06:02:43;13.40;;;12.00;;
11078;SDS011;5592;49.234;7.268;2023-05-21T06:05:09;14.77;;;11.90;;
11078;SDS011;5592;49.234;7.268;2023-05-21T06:07:38;13.60;;;10.90;;
11078;SDS011;5592;49.234;7.268;2023-05-21T06:10:05;12.53;;;11.13;;
11078;SDS011;5592;49.234;7.268;2023-05-21T06:12:31;15.40;;;11.27;;
11078;SDS011;5592;49.234;7.268;2023-05-21T06:14:57;13.77;;;11.33;;
11078;SDS011;5592;49.234;7.268;2023-05-21T06:17:23;13.13;;;11.30;;
11078;SDS011;5592;49.234;7.268;2023-05-21T06:19:52;12.67;;;11.33;;
11078;SDS011;5592;49.234;7.268;2023-05-21T06:22:17;15.57;;;12.00;;
11078;SDS011;5592;49.234;7.268;2023-05-21T06:24:43;13.43;;;11.10;;
11078;SDS011;5592;49.234;7.268;2023-05-21T06:27:09;13.77;;;11.63;;
11078;SDS011;5592;49.234;7.268;2023-05-21T06:29:34;15.23;;;10.80;;
11078;SDS011;5592;49.234;7.268;2023-05-21T06:32:00;14.43;;;11.03;;
11078;SDS011;5592;49.234;7.268;2023-05-21T06:34:26;13.63;;;11.27;;
11078;SDS011;5592;49.234;7.268;2023-05-21T06:36:52;14.43;;;11.53;;
11078;SDS011;5592;49.234;7.268;2023-05-21T06:39:18;15.40;;;12.30;;
11078;SDS011;5592;49.234;7.268;2023-05-21T06:41:44;15.27;;;13.17;;
11078;SDS011;5592;49.234;7.268;2023-05-21T06:44:09;15.33;;;11.00;;
11078;SDS011;5592;49.234;7.268;2023-05-21T06:46:35;13.87;;;12.40;;
11078;SDS011;5592;49.234;7.268;2023-05-21T06:49:01;14.10;;;10.90;;
11078;SDS011;5592;49.234;7.268;2023-05-21T06:51:26;13.93;;;12.50;;
11078;SDS011;5592;49.234;7.268;2023-05-21T06:53:52;12.70;;;11.33;;
11078;SDS011;5592;49.234;7.268;2023-05-21T06:56:18;14.40;;;11.03;;
11078;SDS011;5592;49.234;7.268;2023-05-21T06:58:43;14.83;;;12.63;;
11078;SDS011;5592;49.234;7.268;2023-05-21T07:01:09;14.90;;;12.70;;
11078;SDS011;5592;49.234;7.268;2023-05-21T07:03:35;13.63;;;11.30;;
11078;SDS011;5592;49.234;7.268;2023-05-21T07:06:01;16.07;;;12.70;;
11078;SDS011;5592;49.234;7.268;2023-05-21T07:08:27;16.37;;;12.03;;
11078;SDS011;5592;49.234;7.268;2023-05-21T07:10:53;18.27;;;11.27;;
11078;SDS011;5592;49.234;7.268;2023-05-21T07:13:20;15.70;;;12.83;;
11078;SDS011;5592;49.234;7.268;2023-05-21T07:15:46;18.10;;;12.53;;
11078;SDS011;5592;49.234;7.268;2023-05-21T07:18:12;12.83;;;11.20;;
11078;SDS011;5592;49.234;7.268;2023-05-21T07:20:37;14.60;;;11.53;;
11078;SDS011;5592;49.234;7.268;2023-05-21T07:23:03;48.67;;;12.70;;
11078;SDS011;5592;49.234;7.268;2023-05-21T07:25:29;14.73;;;11.80;;
11078;SDS011;5592;49.234;7.268;2023-05-21T07:27:54;12.73;;;11.43;;
11078;SDS011;5592;49.234;7.268;2023-05-21T07:30:20;14.03;;;11.33;;
11078;SDS011;5592;49.234;7.268;2023-05-21T07:32:46;11.83;;;10.53;;
11078;SDS011;5592;49.234;7.268;2023-05-21T07:35:11;12.30;;;10.73;;
11078;SDS011;5592;49.234;7.268;2023-05-21T07:37:37;12.17;;;10.30;;
11078;SDS011;5592;49.234;7.268;2023-05-21T07:40:05;12.40;;;10.60;;
11078;SDS011;5592;49.234;7.268;2023-05-21T07:42:31;16.20;;;13.13;;
11078;SDS011;5592;49.234;7.268;2023-05-21T07:44:57;11.77;;;10.57;;
11078;SDS011;5592;49.234;7.268;2023-05-21T07:47:23;13.77;;;11.20;;
11078;SDS011;5592;49.234;7.268;2023-05-21T07:49:48;11.37;;;10.27;;
11078;SDS011;5592;49.234;7.268;2023-05-21T07:52:14;12.87;;;10.03;;
11078;SDS011;5592;49.234;7.268;2023-05-21T07:54:40;11.60;;;10.40;;
11078;SDS011;5592;49.234;7.268;2023-05-21T07:57:05;12.40;;;11.00;;
11078;SDS011;5592;49.234;7.268;2023-05-21T07:59:31;12.33;;;11.07;;
11078;SDS011;5592;49.234;7.268;2023-05-21T08:01:57;15.67;;;11.37;;
11078;SDS011;5592;49.234;7.268;2023-05-21T08:04:23;12.00;;;10.70;;
11078;SDS011;5592;49.234;7.268;2023-05-21T08:06:49;11.10;;;10.10;;
11078;SDS011;5592;49.234;7.268;2023-05-21T08:09:15;12.37;;;11.07;;
11078;SDS011;5592;49.234;7.268;2023-05-21T08:11:42;11.27;;;10.23;;
11078;SDS011;5592;49.234;7.268;2023-05-21T08:14:07;13.83;;;10.17;;
11078;SDS011;5592;49.234;7.268;2023-05-21T08:16:33;13.53;;;11.33;;
11078;SDS011;5592;49.234;7.268;2023-05-21T08:19:00;11.90;;;10.47;;
11078;SDS011;5592;49.234;7.268;2023-05-21T08:21:26;11.43;;;10.33;;
11078;SDS011;5592;49.234;7.268;2023-05-21T08:23:51;12.10;;;10.33;;
11078;SDS011;5592;49.234;7.268;2023-05-21T08:26:17;14.07;;;11.47;;
11078;SDS011;5592;49.234;7.268;2023-05-21T08:28:43;11.37;;;10.27;;
11078;SDS011;5592;49.234;7.268;2023-05-21T08:31:09;11.53;;;9.87;;
11078;SDS011;5592;49.234;7.268;2023-05-21T08:33:36;13.60;;;10.07;;
11078;SDS011;5592;49.234;7.268;2023-05-21T08:36:05;12.97;;;11.07;;
11078;SDS011;5592;49.234;7.268;2023-05-21T08:38:31;12.10;;;10.90;;
11078;SDS011;5592;49.234;7.268;2023-05-21T08:40:58;12.90;;;10.80;;
11078;SDS011;5592;49.234;7.268;2023-05-21T08:43:27;12.20;;;11.00;;
11078;SDS011;5592;49.234;7.268;2023-05-21T08:45:54;13.80;;;11.63;;
11078;SDS011;5592;49.234;7.268;2023-05-21T08:48:24;14.27;;;11.23;;
11078;SDS011;5592;49.234;7.268;2023-05-21T08:50:53;11.63;;;10.23;;
11078;SDS011;5592;49.234;7.268;2023-05-21T08:53:19;12.33;;;10.77;;
11078;SDS011;5592;49.234;7.268;2023-05-21T08:55:45;12.97;;;11.67;;
11078;SDS011;5592;49.234;7.268;2023-05-21T08:58:11;16.07;;;11.57;;
11078;SDS011;5592;49.234;7.268;2023-05-21T09:00:38;12.03;;;10.77;;
11078;SDS011;5592;49.234;7.268;2023-05-21T09:03:04;11.67;;;10.33;;
11078;SDS011;5592;49.234;7.268;2023-05-21T09:05:41;12.63;;;10.60;;
11078;SDS011;5592;49.234;7.268;2023-05-21T09:08:16;11.43;;;10.33;;
11078;SDS011;5592;49.234;7.268;2023-05-21T09:10:49;12.70;;;10.10;;
11078;SDS011;5592;49.234;7.268;2023-05-21T09:13:15;14.80;;;11.43;;
11078;SDS011;5592;49.234;7.268;2023-05-21T09:15:45;10.83;;;9.83;;
11078;SDS011;5592;49.234;7.268;2023-05-21T09:18:12;12.43;;;10.40;;
11078;SDS011;5592;49.234;7.268;2023-05-21T09:20:38;12.50;;;11.30;;
11078;SDS011;5592;49.234;7.268;2023-05-21T09:23:06;12.40;;;10.07;;
11078;SDS011;5592;49.234;7.268;2023-05-21T09:25:40;12.30;;;10.13;;
11078;SDS011;5592;49.234;7.268;2023-05-21T09:28:12;11.70;;;10.70;;
11078;SDS011;5592;49.234;7.268;2023-05-21T09:30:47;12.50;;;9.50;;
11078;SDS011;5592;49.234;7.268;2023-05-21T09:33:24;11.37;;;10.17;;
11078;SDS011;5592;49.234;7.268;2023-05-21T09:35:51;11.23;;;10.10;;
11078;SDS011;5592;49.234;7.268;2023-05-21T09:38:23;11.63;;;9.93;;
11078;SDS011;5592;49.234;7.268;2023-05-21T09:40:50;11.40;;;10.20;;
11078;SDS011;5592;49.234;7.268;2023-05-21T09:43:20;10.40;;;9.40;;
11078;SDS011;5592;49.234;7.268;2023-05-21T09:45:49;11.00;;;10.00;;
11078;SDS011;5592;49.234;7.268;2023-05-21T09:48:16;11.97;;;9.70;;
11078;SDS011;5592;49.234;7.268;2023-05-21T09:50:42;10.60;;;9.50;;
11078;SDS011;5592;49.234;7.268;2023-05-21T09:53:11;15.10;;;10.57;;
11078;SDS011;5592;49.234;7.268;2023-05-21T09:55:39;11.60;;;10.40;;
11078;SDS011;5592;49.234;7.268;2023-05-21T09:58:07;12.37;;;9.90;;
11078;SDS011;5592;49.234;7.268;2023-05-21T10:00:34;11.33;;;10.23;;
11078;SDS011;5592;49.234;7.268;2023-05-21T10:03:00;10.37;;;9.27;;
11078;SDS011;5592;49.234;7.268;2023-05-21T10:05:29;10.27;;;9.07;;
11078;SDS011;5592;49.234;7.268;2023-05-21T10:07:58;12.20;;;9.67;;
11078;SDS011;5592;49.234;7.268;2023-05-21T10:10:26;10.40;;;9.13;;
11078;SDS011;5592;49.234;7.268;2023-05-21T10:15:40;10.17;;;9.07;;
11078;SDS011;5592;49.234;7.268;2023-05-21T10:18:09;11.20;;;10.10;;
11078;SDS011;5592;49.234;7.268;2023-05-21T10:20:36;11.33;;;9.80;;
11078;SDS011;5592;49.234;7.268;2023-05-21T10:23:02;10.80;;;9.50;;
11078;SDS011;5592;49.234;7.268;2023-05-21T10:25:29;10.53;;;9.53;;
11078;SDS011;5592;49.234;7.268;2023-05-21T10:27:56;10.67;;;9.13;;
11078;SDS011;5592;49.234;7.268;2023-05-21T10:30:22;17.33;;;10.38;;
11078;SDS011;5592;49.234;7.268;2023-05-21T10:32:48;9.93;;;8.95;;
11078;SDS011;5592;49.234;7.268;2023-05-21T10:35:14;9.95;;;9.05;;
11078;SDS011;5592;49.234;7.268;2023-05-21T10:37:42;9.18;;;8.38;;
11078;SDS011;5592;49.234;7.268;2023-05-21T10:40:08;9.10;;;8.20;;
11078;SDS011;5592;49.234;7.268;2023-05-21T10:56:38;9.43;;;8.37;;
11078;SDS011;5592;49.234;7.268;2023-05-21T11:02:04;9.50;;;8.17;;
11078;SDS011;5592;49.234;7.268;2023-05-21T11:04:33;13.60;;;9.00;;
11078;SDS011;5592;49.234;7.268;2023-05-21T11:07:03;14.50;;;9.30;;
11078;SDS011;5592;49.234;7.268;2023-05-21T11:09:32;13.10;;;9.90;;
11078;SDS011;5592;49.234;7.268;2023-05-21T11:11:58;11.70;;;9.27;;
11078;SDS011;5592;49.234;7.268;2023-05-21T11:14:40;8.90;;;8.00;;
11078;SDS011;5592;49.234;7.268;2023-05-21T11:20:03;14.50;;;8.83;;
11078;SDS011;5592;49.234;7.268;2023-05-21T11:22:33;9.60;;;8.60;;
11078;SDS011;5592;49.234;7.268;2023-05-21T11:25:02;11.40;;;8.97;;
11078;SDS011;5592;49.234;7.268;2023-05-21T11:27:32;9.50;;;8.63;;
11078;SDS011;5592;49.234;7.268;2023-05-21T11:30:02;10.63;;;9.53;;
11078;SDS011;5592;49.234;7.268;2023-05-21T11:32:39;10.20;;;9.30;;
11078;SDS011;5592;49.234;7.268;2023-05-21T11:35:26;9.40;;;8.50;;
11078;SDS011;5592;49.234;7.268;2023-05-21T11:37:54;9.30;;;8.40;;
11078;SDS011;5592;49.234;7.268;2023-05-21T11:42:53;9.57;;;8.20;;
11078;SDS011;5592;49.234;7.268;2023-05-21T11:45:27;10.13;;;9.03;;
11078;SDS011;5592;49.234;7.268;2023-05-21T11:47:55;10.20;;;9.20;;
11078;SDS011;5592;49.234;7.268;2023-05-21T11:50:21;11.67;;;10.47;;
11078;SDS011;5592;49.234;7.268;2023-05-21T11:52:47;10.03;;;9.07;;
11078;SDS011;5592;49.234;7.268;2023-05-21T11:55:13;13.63;;;9.33;;
11078;SDS011;5592;49.234;7.268;2023-05-21T11:57:40;9.97;;;8.97;;
11078;SDS011;5592;49.234;7.268;2023-05-21T12:00:11;10.30;;;9.30;;
11078;SDS011;5592;49.234;7.268;2023-05-21T12:02:43;11.47;;;9.47;;
11078;SDS011;5592;49.234;7.268;2023-05-21T12:05:13;10.47;;;9.27;;
11078;SDS011;5592;49.234;7.268;2023-05-21T12:07:39;11.30;;;9.50;;
11078;SDS011;5592;49.234;7.268;2023-05-21T12:10:05;10.30;;;9.40;;
11078;SDS011;5592;49.234;7.268;2023-05-21T12:12:31;10.80;;;9.73;;
11078;SDS011;5592;49.234;7.268;2023-05-21T12:14:57;10.20;;;9.20;;
11078;SDS011;5592;49.234;7.268;2023-05-21T12:17:26;10.60;;;9.57;;
11078;SDS011;5592;49.234;7.268;2023-05-21T12:19:53;10.23;;;9.13;;
11078;SDS011;5592;49.234;7.268;2023-05-21T12:22:21;9.73;;;8.83;;
11078;SDS011;5592;49.234;7.268;2023-05-21T12:24:48;10.77;;;9.67;;
11078;SDS011;5592;49.234;7.268;2023-05-21T12:27:14;12.00;;;9.07;;
11078;SDS011;5592;49.234;7.268;2023-05-21T12:29:43;10.70;;;9.20;;
11078;SDS011;5592;49.234;7.268;2023-05-21T12:32:10;12.90;;;10.07;;
11078;SDS011;5592;49.234;7.268;2023-05-21T12:34:41;10.93;;;9.73;;
11078;SDS011;5592;49.234;7.268;2023-05-21T12:37:23;9.90;;;8.90;;
11078;SDS011;5592;49.234;7.268;2023-05-21T12:39:50;12.63;;;8.40;;
11078;SDS011;5592;49.234;7.268;2023-05-21T12:42:27;14.33;;;9.60;;
11078;SDS011;5592;49.234;7.268;2023-05-21T12:44:55;10.23;;;8.50;;
11078;SDS011;5592;49.234;7.268;2023-05-21T12:47:22;12.17;;;9.53;;
11078;SDS011;5592;49.234;7.268;2023-05-21T12:49:49;13.60;;;10.10;;
11078;SDS011;5592;49.234;7.268;2023-05-21T12:52:19;14.20;;;8.97;;
11078;SDS011;5592;49.234;7.268;2023-05-21T12:54:47;10.33;;;9.33;;
11078;SDS011;5592;49.234;7.268;2023-05-21T12:57:18;8.77;;;7.97;;
11078;SDS011;5592;49.234;7.268;2023-05-21T12:59:49;9.40;;;8.50;;
11078;SDS011;5592;49.234;7.268;2023-05-21T13:02:19;10.23;;;9.17;;
11078;SDS011;5592;49.234;7.268;2023-05-21T13:05:04;11.57;;;9.57;;
11078;SDS011;5592;49.234;7.268;2023-05-21T13:07:43;8.53;;;7.73;;
11078;SDS011;5592;49.234;7.268;2023-05-21T13:10:11;13.77;;;9.90;;
11078;SDS011;5592;49.234;7.268;2023-05-21T13:12:37;9.67;;;8.70;;
11078;SDS011;5592;49.234;7.268;2023-05-21T13:15:03;11.73;;;10.13;;
11078;SDS011;5592;49.234;7.268;2023-05-21T13:17:30;12.80;;;8.40;;
11078;SDS011;5592;49.234;7.268;2023-05-21T13:20:08;10.97;;;9.17;;
11078;SDS011;5592;49.234;7.268;2023-05-21T13:22:45;10.50;;;8.80;;
11078;SDS011;5592;49.234;7.268;2023-05-21T13:25:32;10.83;;;9.07;;
11078;SDS011;5592;49.234;7.268;2023-05-21T13:28:00;9.50;;;8.50;;
11078;SDS011;5592;49.234;7.268;2023-05-21T13:30:27;10.03;;;9.03;;
11078;SDS011;5592;49.234;7.268;2023-05-21T13:32:52;12.00;;;10.07;;
11078;SDS011;5592;49.234;7.268;2023-05-21T13:35:18;10.10;;;9.10;;
11078;SDS011;5592;49.234;7.268;2023-05-21T13:37:44;10.97;;;9.83;;
11078;SDS011;5592;49.234;7.268;2023-05-21T13:40:10;12.00;;;9.60;;
11078;SDS011;5592;49.234;7.268;2023-05-21T13:42:43;11.63;;;10.30;;
11078;SDS011;5592;49.234;7.268;2023-05-21T13:45:10;11.33;;;10.33;;
11078;SDS011;5592;49.234;7.268;2023-05-21T13:47:38;14.30;;;9.87;;
11078;SDS011;5592;49.234;7.268;2023-05-21T13:50:04;11.13;;;9.50;;
11078;SDS011;5592;49.234;7.268;2023-05-21T13:52:31;11.00;;;9.57;;
11078;SDS011;5592;49.234;7.268;2023-05-21T13:54:57;11.20;;;9.10;;
11078;SDS011;5592;49.234;7.268;2023-05-21T13:57:22;9.80;;;8.90;;
11078;SDS011;5592;49.234;7.268;2023-05-21T13:59:50;12.20;;;9.93;;
11078;SDS011;5592;49.234;7.268;2023-05-21T14:02:16;12.70;;;9.03;;
11078;SDS011;5592;49.234;7.268;2023-05-21T14:04:42;10.00;;;9.00;;
11078;SDS011;5592;49.234;7.268;2023-05-21T14:07:08;10.20;;;9.07;;
11078;SDS011;5592;49.234;7.268;2023-05-21T14:09:35;9.90;;;8.90;;
11078;SDS011;5592;49.234;7.268;2023-05-21T14:12:02;11.93;;;10.20;;
11078;SDS011;5592;49.234;7.268;2023-05-21T14:14:29;11.53;;;8.77;;
11078;SDS011;5592;49.234;7.268;2023-05-21T14:16:55;11.87;;;8.17;;
11078;SDS011;5592;49.234;7.268;2023-05-21T14:19:21;11.67;;;9.47;;
11078;SDS011;5592;49.234;7.268;2023-05-21T14:21:46;11.00;;;8.93;;
11078;SDS011;5592;49.234;7.268;2023-05-21T14:24:12;12.30;;;9.27;;
11078;SDS011;5592;49.234;7.268;2023-05-21T14:26:40;9.10;;;8.20;;
11078;SDS011;5592;49.234;7.268;2023-05-21T14:29:06;10.43;;;8.53;;
11078;SDS011;5592;49.234;7.268;2023-05-21T14:31:32;8.50;;;7.60;;
11078;SDS011;5592;49.234;7.268;2023-05-21T14:33:58;9.83;;;8.67;;
11078;SDS011;5592;49.234;7.268;2023-05-21T14:36:24;9.63;;;8.27;;
11078;SDS011;5592;49.234;7.268;2023-05-21T14:38:50;11.23;;;7.90;;
11078;SDS011;5592;49.234;7.268;2023-05-21T14:41:15;11.37;;;8.73;;
11078;SDS011;5592;49.234;7.268;2023-05-21T14:43:41;11.60;;;9.13;;
11078;SDS011;5592;49.234;7.268;2023-05-21T14:46:06;9.70;;;8.70;;
11078;SDS011;5592;49.234;7.268;2023-05-21T14:48:32;9.43;;;8.40;;
11078;SDS011;5592;49.234;7.268;2023-05-21T14:50:57;9.20;;;8.30;;
11078;SDS011;5592;49.234;7.268;2023-05-21T14:53:23;10.50;;;8.70;;
11078;SDS011;5592;49.234;7.268;2023-05-21T14:55:49;10.70;;;8.50;;
11078;SDS011;5592;49.234;7.268;2023-05-21T14:58:15;13.07;;;8.83;;
11078;SDS011;5592;49.234;7.268;2023-05-21T15:00:43;9.90;;;8.57;;
11078;SDS011;5592;49.234;7.268;2023-05-21T15:03:08;10.73;;;8.40;;
11078;SDS011;5592;49.234;7.268;2023-05-21T15:05:34;9.97;;;7.90;;
11078;SDS011;5592;49.234;7.268;2023-05-21T15:08:00;9.40;;;8.37;;